createdAt,value
2019-05-21T00:01:37.050Z,21.97
2019-05-21T00:04:07.081Z,21.50
2019-05-21T00:06:37.080Z,22.50
2019-05-21T00:09:07.164Z,22.30
2019-05-21T00:11:37.251Z,22.40
2019-05-21T00:14:07.248Z,22.40
2019-05-21T00:16:37.317Z,22.53
2019-05-21T00:19:07.414Z,23.80
2019-05-21T00:21:37.418Z,23.67
2019-05-21T00:24:07.492Z,24.27
2019-05-21T00:26:37.609Z,23.83
2019-05-21T00:29:43.783Z,23.97
2019-05-21T00:32:50.151Z,23.43
2019-05-21T00:35:56.669Z,23.67
2019-05-21T00:39:03.167Z,23.83
2019-05-21T00:42:01.741Z,23.40
2019-05-21T00:44:36.690Z,23.47
2019-05-21T00:47:09.117Z,22.73
2019-05-21T00:49:39.367Z,22.80
2019-05-21T00:52:09.740Z,22.93
2019-05-21T00:54:39.942Z,23.47
2019-05-21T00:57:09.995Z,23.73
2019-05-21T00:59:39.985Z,24.50
2019-05-21T01:02:10.119Z,23.60
2019-05-21T01:04:40.102Z,23.67
2019-05-21T01:07:10.103Z,23.10
2019-05-21T01:09:41.512Z,22.80
2019-05-21T01:12:11.525Z,22.80
2019-05-21T01:14:41.593Z,23.73
2019-05-21T01:17:11.787Z,22.70
2019-05-21T01:19:41.792Z,22.77
2019-05-21T01:22:11.871Z,23.63
2019-05-21T01:24:41.904Z,22.77
2019-05-21T01:27:11.910Z,23.17
2019-05-21T01:29:41.907Z,23.33
2019-05-21T01:32:11.942Z,22.07
2019-05-21T01:34:41.937Z,23.07
2019-05-21T01:37:11.998Z,22.93
2019-05-21T01:39:41.986Z,22.03
2019-05-21T01:42:11.989Z,22.40
2019-05-21T01:44:41.989Z,22.50
2019-05-21T01:47:11.990Z,22.43
2019-05-21T01:49:42.057Z,23.23
2019-05-21T01:52:12.145Z,22.27
2019-05-21T01:54:42.102Z,22.47
2019-05-21T01:57:12.102Z,22.07
2019-05-21T01:59:42.110Z,23.60
2019-05-21T02:02:12.115Z,23.00
2019-05-21T02:04:42.140Z,22.07
2019-05-21T02:07:12.133Z,22.73
2019-05-21T02:10:00.233Z,22.07
2019-05-21T02:12:30.239Z,22.73
2019-05-21T02:15:00.235Z,22.50
2019-05-21T02:17:30.246Z,21.77
2019-05-21T02:20:00.314Z,21.73
2019-05-21T02:22:30.346Z,22.13
2019-05-21T02:25:01.319Z,22.83
2019-05-21T02:27:31.448Z,21.87
2019-05-21T02:30:03.172Z,22.33
2019-05-21T02:32:33.613Z,23.30
2019-05-21T02:35:04.355Z,24.10
2019-05-21T02:37:34.511Z,26.27
2019-05-21T02:40:05.818Z,24.67
2019-05-21T02:42:36.158Z,23.17
2019-05-21T02:45:08.009Z,23.07
2019-05-21T02:47:38.015Z,22.53
2019-05-21T02:50:08.716Z,22.70
2019-05-21T02:52:38.724Z,23.53
2019-05-21T02:55:09.440Z,23.30
2019-05-21T02:57:41.108Z,22.77
2019-05-21T03:00:38.662Z,22.53
2019-05-21T03:03:08.447Z,21.70
2019-05-21T03:05:38.536Z,23.00
2019-05-21T03:23:22.566Z,23.73
2019-05-21T03:25:52.569Z,23.23
2019-05-21T03:28:22.606Z,24.13
2019-05-21T03:30:52.603Z,23.60
2019-05-21T03:33:23.811Z,24.13
2019-05-21T03:35:53.830Z,23.90
2019-05-21T03:38:23.862Z,24.27
2019-05-21T03:40:53.882Z,24.60
2019-05-21T03:43:23.916Z,24.37
2019-05-21T03:45:54.026Z,24.47
2019-05-21T03:48:24.119Z,24.73
2019-05-21T03:50:54.399Z,25.83
2019-05-21T03:53:24.429Z,25.17
2019-05-21T03:55:54.424Z,24.50
2019-05-21T03:58:24.502Z,24.13
2019-05-21T04:00:55.595Z,23.47
2019-05-21T04:03:25.593Z,23.90
2019-05-21T04:05:55.615Z,23.93
2019-05-21T04:08:25.647Z,23.30
2019-05-21T04:10:55.638Z,22.13
2019-05-21T04:13:25.928Z,22.30
2019-05-21T04:16:00.315Z,23.60
2019-05-21T04:18:31.973Z,21.97
2019-05-21T04:21:02.013Z,24.10
2019-05-21T04:23:32.055Z,23.90
2019-05-21T04:26:02.062Z,25.00
2019-05-21T04:28:32.082Z,22.87
2019-05-21T04:31:02.121Z,24.63
2019-05-21T04:33:32.133Z,23.93
2019-05-21T04:36:02.176Z,25.20
2019-05-21T04:38:32.165Z,24.53
2019-05-21T04:41:02.194Z,25.20
2019-05-21T04:43:32.187Z,23.77
2019-05-21T04:46:02.229Z,24.10
2019-05-21T04:48:32.272Z,22.57
2019-05-21T04:51:02.298Z,23.17
2019-05-21T04:53:32.354Z,22.70
2019-05-21T04:56:02.419Z,22.53
2019-05-21T04:58:32.433Z,24.17
2019-05-21T05:01:02.508Z,23.13
2019-05-21T05:03:32.523Z,20.23
2019-05-21T05:06:02.589Z,20.33
2019-05-21T05:08:32.600Z,18.53
2019-05-21T05:11:02.842Z,19.47
2019-05-21T05:13:32.960Z,21.43
2019-05-21T05:16:04.339Z,21.60
2019-05-21T05:18:35.665Z,18.70
2019-05-21T05:21:05.788Z,19.70
2019-05-21T05:23:35.874Z,18.80
2019-05-21T05:26:05.883Z,20.17
2019-05-21T05:28:35.950Z,18.80
2019-05-21T05:31:06.056Z,18.47
2019-05-21T05:33:36.084Z,19.80
2019-05-21T05:36:06.078Z,18.77
2019-05-21T05:38:36.124Z,19.30
2019-05-21T05:41:06.300Z,17.93
2019-05-21T05:43:36.322Z,19.20
2019-05-21T05:46:06.519Z,19.07
2019-05-21T05:48:38.184Z,19.83
2019-05-21T05:51:08.785Z,20.40
2019-05-21T05:53:56.393Z,20.50
2019-05-21T05:56:27.968Z,19.87
2019-05-21T05:58:58.045Z,12.43
2019-05-21T06:01:29.789Z,12.40
2019-05-21T06:03:59.802Z,11.20
2019-05-21T06:06:29.829Z,11.80
2019-05-21T06:08:59.896Z,13.70
2019-05-21T06:11:29.960Z,12.50
2019-05-21T06:13:59.985Z,12.60
2019-05-21T06:16:30.088Z,12.97
2019-05-21T06:19:00.081Z,12.10
2019-05-21T06:21:30.128Z,12.03
2019-05-21T06:24:00.124Z,13.10
2019-05-21T06:26:30.149Z,11.80
2019-05-21T06:29:00.154Z,11.70
2019-05-21T06:31:30.205Z,12.00
2019-05-21T06:34:00.215Z,12.37
2019-05-21T06:36:30.299Z,11.60
2019-05-21T06:39:00.466Z,11.50
2019-05-21T06:41:32.381Z,10.97
2019-05-21T06:44:02.469Z,11.20
2019-05-21T06:46:32.573Z,11.53
2019-05-21T06:49:02.583Z,11.07
2019-05-21T06:51:32.642Z,10.53
2019-05-21T06:54:02.875Z,10.97
2019-05-21T06:56:32.848Z,11.17
2019-05-21T06:59:03.968Z,10.10
2019-05-21T07:01:33.978Z,10.63
2019-05-21T07:04:04.060Z,10.67
2019-05-21T07:06:34.076Z,10.47
2019-05-21T07:09:05.673Z,9.90
2019-05-21T07:11:35.789Z,9.83
2019-05-21T07:14:05.798Z,10.40
2019-05-21T07:16:35.822Z,10.17
2019-05-21T07:19:05.932Z,10.77
2019-05-21T07:21:35.959Z,10.07
2019-05-21T07:24:06.058Z,10.33
2019-05-21T07:26:36.093Z,9.83
2019-05-21T07:29:06.370Z,9.93
2019-05-21T07:31:37.634Z,9.97
2019-05-21T07:34:07.649Z,10.27
2019-05-21T07:36:37.692Z,10.43
2019-05-21T07:39:07.908Z,10.53
2019-05-21T07:41:37.901Z,9.90
2019-05-21T07:44:07.920Z,10.13
2019-05-21T07:46:39.685Z,9.40
2019-05-21T07:49:09.805Z,9.50
2019-05-21T07:51:39.944Z,10.60
2019-05-21T07:54:10.073Z,9.10
2019-05-21T07:56:40.081Z,9.23
2019-05-21T07:59:11.072Z,9.03
2019-05-21T08:01:41.107Z,9.00
2019-05-21T08:04:11.158Z,8.80
2019-05-21T08:06:41.294Z,8.93
2019-05-21T08:09:14.714Z,9.07
2019-05-21T08:11:46.801Z,8.63
2019-05-21T08:14:15.926Z,9.53
2019-05-21T08:16:46.000Z,9.07
2019-05-21T08:19:16.026Z,9.13
2019-05-21T08:21:46.013Z,9.43
2019-05-21T08:24:16.028Z,9.27
2019-05-21T08:26:46.033Z,8.83
2019-05-21T08:29:16.063Z,8.57
2019-05-21T08:31:46.049Z,9.10
2019-05-21T08:34:16.169Z,9.00
2019-05-21T08:36:47.291Z,9.20
2019-05-21T08:39:28.226Z,9.93
2019-05-21T08:41:48.997Z,8.90
2019-05-21T08:44:19.152Z,9.30
2019-05-21T08:46:49.193Z,8.83
2019-05-21T08:49:19.179Z,9.00
2019-05-21T08:51:49.212Z,9.10
2019-05-21T08:54:20.852Z,9.10
2019-05-21T08:56:50.859Z,8.83
2019-05-21T08:59:20.894Z,9.00
2019-05-21T09:01:50.892Z,7.77
2019-05-21T09:04:20.950Z,8.13
2019-05-21T09:06:50.998Z,8.33
2019-05-21T09:09:21.011Z,8.40
2019-05-21T09:11:51.130Z,8.20
2019-05-21T09:14:21.177Z,7.87
2019-05-21T09:16:51.278Z,8.07
2019-05-21T09:19:21.257Z,7.97
2019-05-21T09:21:51.448Z,7.80
2019-05-21T09:24:21.492Z,7.37
2019-05-21T09:26:51.568Z,8.10
2019-05-21T09:29:21.650Z,8.27
2019-05-21T09:31:51.622Z,7.70
2019-05-21T09:34:21.636Z,7.77
2019-05-21T09:36:51.806Z,7.87
2019-05-21T09:39:21.827Z,7.63
2019-05-21T09:41:51.922Z,7.70
2019-05-21T09:44:21.919Z,8.30
2019-05-21T09:46:52.139Z,7.70
2019-05-21T09:49:22.215Z,7.37
2019-05-21T09:51:52.278Z,7.90
2019-05-21T09:54:22.287Z,7.77
2019-05-21T09:56:52.333Z,7.63
2019-05-21T09:59:33.060Z,7.67
2019-05-21T10:02:04.795Z,7.60
2019-05-21T10:04:34.770Z,7.47
2019-05-21T10:07:05.044Z,6.80
2019-05-21T10:09:35.150Z,7.07
2019-05-21T10:12:05.485Z,7.40
2019-05-21T10:14:35.486Z,7.20
2019-05-21T10:17:05.632Z,7.53
2019-05-21T10:19:35.798Z,7.23
2019-05-21T10:22:06.197Z,7.50
2019-05-21T10:24:36.342Z,7.07
2019-05-21T10:27:06.503Z,7.10
2019-05-21T10:29:36.489Z,7.33
2019-05-21T10:32:06.579Z,7.60
2019-05-21T10:34:36.643Z,7.40
2019-05-21T10:37:06.655Z,7.17
2019-05-21T10:39:36.777Z,7.63
2019-05-21T10:42:06.987Z,7.03
2019-05-21T10:44:36.994Z,7.17
2019-05-21T10:47:07.337Z,7.80
2019-05-21T10:49:37.364Z,7.60
2019-05-21T10:52:07.360Z,7.87
2019-05-21T10:54:37.469Z,7.40
2019-05-21T10:57:07.463Z,7.50
2019-05-21T10:59:37.475Z,7.43
2019-05-21T11:02:11.899Z,7.70
2019-05-21T11:04:43.535Z,7.43
2019-05-21T11:07:15.431Z,6.83
2019-05-21T11:09:45.405Z,7.30
2019-05-21T11:12:15.536Z,7.30
2019-05-21T11:14:45.575Z,7.13
2019-05-21T11:17:16.639Z,7.80
2019-05-21T11:19:46.768Z,7.57
2019-05-21T11:22:16.780Z,7.43
2019-05-21T11:24:46.776Z,7.50
2019-05-21T11:27:16.844Z,6.90
2019-05-21T11:29:46.894Z,6.87
2019-05-21T11:32:16.966Z,6.90
2019-05-21T11:34:50.027Z,7.50
2019-05-21T11:37:18.742Z,7.10
2019-05-21T11:39:48.816Z,7.43
2019-05-21T11:42:18.835Z,6.93
2019-05-21T11:44:48.890Z,7.60
2019-05-21T11:47:18.885Z,7.43
2019-05-21T11:49:48.895Z,7.53
2019-05-21T11:52:18.984Z,7.30
2019-05-21T11:54:49.019Z,7.57
2019-05-21T11:57:19.020Z,7.90
2019-05-21T11:59:49.059Z,7.63
2019-05-21T12:02:19.049Z,7.67
2019-05-21T12:04:49.100Z,7.33
2019-05-21T12:07:19.073Z,7.20
2019-05-21T12:09:49.342Z,7.43
2019-05-21T12:12:19.614Z,7.20
2019-05-21T12:14:49.671Z,6.43
2019-05-21T12:17:19.805Z,6.57
2019-05-21T12:19:49.808Z,6.53
2019-05-21T12:22:19.964Z,6.40
2019-05-21T12:24:50.015Z,6.33
2019-05-21T12:27:19.994Z,6.73
2019-05-21T12:29:50.059Z,6.67
2019-05-21T12:32:21.306Z,6.53
2019-05-21T12:34:51.433Z,6.40
2019-05-21T12:37:21.412Z,6.63
2019-05-21T12:39:51.556Z,6.30
2019-05-21T12:42:21.564Z,6.23
2019-05-21T12:44:51.579Z,6.10
2019-05-21T12:47:21.554Z,6.03
2019-05-21T12:49:51.837Z,6.00
2019-05-21T12:52:21.826Z,5.97
2019-05-21T12:54:52.030Z,5.97
2019-05-21T12:57:22.127Z,6.20
2019-05-21T12:59:52.419Z,6.13
2019-05-21T13:02:22.486Z,6.00
2019-05-21T13:04:52.479Z,6.30
2019-05-21T13:07:22.589Z,6.13
2019-05-21T13:09:52.784Z,6.23
2019-05-21T13:12:22.777Z,6.00
2019-05-21T13:14:52.830Z,6.13
2019-05-21T13:17:22.801Z,6.80
2019-05-21T13:19:53.208Z,5.90
2019-05-21T13:22:23.198Z,5.90
2019-05-21T13:24:53.376Z,6.30
2019-05-21T13:27:23.361Z,6.50
2019-05-21T13:29:53.445Z,6.47
2019-05-21T13:32:23.433Z,6.30
2019-05-21T13:34:53.487Z,6.20
2019-05-21T13:37:23.548Z,6.17
2019-05-21T14:00:35.169Z,7.17
2019-05-21T14:03:06.783Z,7.13
2019-05-21T14:05:38.499Z,7.07
2019-05-21T14:08:08.518Z,6.17
2019-05-21T14:10:39.049Z,6.00
2019-05-21T14:13:09.422Z,6.03
2019-05-21T14:15:39.485Z,6.00
2019-05-21T14:18:09.833Z,7.10
2019-05-21T14:20:39.813Z,7.10
2019-05-21T14:23:09.866Z,8.20
2019-05-21T14:25:39.934Z,8.07
2019-05-21T14:28:10.078Z,8.23
2019-05-21T14:30:40.181Z,7.57
2019-05-21T14:33:10.240Z,8.30
2019-05-21T14:35:40.741Z,8.30
2019-05-21T14:38:10.754Z,8.37
2019-05-21T14:40:40.829Z,7.83
2019-05-21T14:43:11.002Z,8.33
2019-05-21T14:45:41.112Z,8.80
2019-05-21T14:48:11.112Z,8.50
2019-05-21T14:50:41.165Z,8.30
2019-05-21T14:53:11.318Z,8.40
2019-05-21T14:55:41.395Z,8.03
2019-05-21T14:58:11.373Z,7.53
2019-05-21T15:00:41.631Z,7.80
2019-05-21T15:03:24.231Z,7.37
2019-05-21T15:05:43.448Z,7.60
2019-05-21T15:08:13.451Z,7.30
2019-05-21T15:10:49.291Z,7.67
2019-05-21T15:13:16.411Z,7.40
2019-05-21T15:15:46.477Z,6.80
2019-05-21T15:18:21.337Z,6.80
2019-05-21T15:20:52.687Z,6.80
2019-05-21T15:23:22.671Z,6.50
2019-05-21T15:25:52.650Z,6.00
2019-05-21T15:28:22.638Z,6.50
2019-05-21T15:30:52.861Z,6.10
2019-05-21T15:33:22.990Z,6.10
2019-05-21T15:35:52.970Z,5.97
2019-05-21T15:38:23.045Z,6.07
2019-05-21T15:41:08.905Z,6.20
2019-05-21T15:43:24.768Z,6.13
2019-05-21T15:45:54.820Z,5.80
2019-05-21T15:48:26.609Z,5.77
2019-05-21T15:50:56.567Z,5.90
2019-05-21T15:53:26.552Z,6.23
2019-05-21T15:55:56.556Z,5.90
2019-05-21T15:58:27.075Z,6.57
2019-05-21T16:00:57.224Z,7.23
2019-05-21T16:03:27.305Z,6.03
2019-05-21T16:05:57.423Z,6.40
2019-05-21T16:08:28.606Z,6.03
2019-05-21T16:10:58.603Z,6.30
2019-05-21T16:13:28.686Z,5.93
2019-05-21T16:15:58.705Z,6.20
2019-05-21T16:18:28.739Z,6.00
2019-05-21T16:20:58.717Z,6.47
2019-05-21T16:23:28.800Z,6.40
2019-05-21T16:25:58.869Z,6.47
2019-05-21T16:28:28.893Z,6.43
2019-05-21T16:30:58.889Z,6.30
2019-05-21T16:33:28.951Z,6.87
2019-05-21T16:35:58.977Z,6.60
2019-05-21T16:38:29.354Z,6.70
2019-05-21T16:40:59.430Z,6.80
2019-05-21T16:43:29.448Z,7.10
2019-05-21T16:45:59.430Z,7.30
2019-05-21T16:48:29.476Z,7.57
2019-05-21T16:50:59.470Z,7.40
2019-05-21T16:53:29.477Z,7.00
2019-05-21T16:55:59.517Z,7.47
2019-05-21T16:58:29.623Z,7.20
2019-05-21T17:00:59.831Z,7.40
2019-05-21T17:03:29.811Z,8.17
2019-05-21T17:05:59.880Z,6.80
2019-05-21T17:08:30.024Z,6.80
2019-05-21T17:11:00.008Z,6.70
2019-05-21T17:13:30.048Z,7.00
2019-05-21T17:16:00.000Z,6.70
2019-05-21T17:18:29.993Z,6.70
2019-05-21T17:20:59.986Z,7.10
2019-05-21T17:23:29.988Z,6.40
2019-05-21T17:25:59.970Z,6.70
2019-05-21T17:28:29.994Z,7.17
2019-05-21T17:31:00.079Z,6.93
2019-05-21T17:33:30.179Z,7.50
2019-05-21T17:36:00.253Z,7.20
2019-05-21T17:38:30.410Z,7.07
2019-05-21T17:40:59.514Z,6.70
2019-05-21T17:43:29.261Z,6.90
2019-05-21T17:45:59.391Z,6.67
2019-05-21T17:48:29.532Z,6.53
2019-05-21T17:50:59.647Z,7.20
2019-05-21T17:53:29.644Z,6.70
2019-05-21T17:55:59.671Z,6.67
2019-05-21T17:58:31.624Z,6.60
2019-05-21T18:01:03.472Z,6.70
2019-05-21T18:03:33.516Z,6.90
2019-05-21T18:06:05.024Z,6.90
2019-05-21T18:08:35.259Z,6.97
2019-05-21T18:11:05.683Z,7.00
2019-05-21T18:13:37.086Z,6.80
2019-05-21T18:16:09.043Z,6.90
2019-05-21T18:18:39.167Z,7.40
2019-05-21T18:21:09.441Z,7.23
2019-05-21T18:23:39.551Z,7.13
2019-05-21T18:26:10.324Z,6.90
2019-05-21T18:28:40.777Z,7.43
2019-05-21T18:31:11.024Z,7.60
2019-05-21T18:33:41.139Z,7.00
2019-05-21T18:36:11.148Z,6.97
2019-05-21T18:38:42.257Z,7.07
2019-05-21T18:41:12.692Z,6.87
2019-05-21T18:43:42.785Z,7.03
2019-05-21T18:46:12.906Z,7.07
2019-05-21T18:48:42.984Z,7.67
2019-05-21T18:51:13.013Z,7.53
2019-05-21T18:53:43.043Z,8.30
2019-05-21T18:56:13.041Z,7.70
2019-05-21T18:58:43.494Z,7.20
2019-05-21T19:01:13.898Z,7.60
2019-05-21T19:03:43.986Z,7.20
2019-05-21T19:06:14.065Z,7.87
2019-05-21T19:08:51.541Z,7.50
2019-05-21T19:11:22.759Z,7.80
2019-05-21T19:13:52.892Z,7.63
2019-05-21T19:16:22.893Z,7.67
2019-05-21T19:18:52.878Z,8.10
2019-05-21T19:21:23.048Z,7.70
2019-05-21T19:23:53.106Z,7.90
2019-05-21T19:26:23.365Z,8.00
2019-05-21T19:28:53.347Z,7.87
2019-05-21T19:31:23.361Z,8.30
2019-05-21T19:33:53.610Z,8.13
2019-05-21T19:36:23.581Z,7.87
2019-05-21T19:38:53.677Z,8.20
2019-05-21T19:41:23.691Z,8.00
2019-05-21T19:43:53.841Z,7.73
2019-05-21T19:46:23.934Z,7.83
2019-05-21T19:48:53.927Z,8.30
2019-05-21T19:51:23.929Z,8.10
2019-05-21T19:53:54.389Z,8.30
2019-05-21T19:56:24.645Z,7.97
2019-05-21T19:58:54.723Z,8.13
2019-05-21T20:01:25.097Z,8.17
2019-05-21T20:03:55.373Z,8.33
2019-05-21T20:06:25.417Z,8.70
2019-05-21T20:08:55.438Z,8.27
2019-05-21T20:11:25.783Z,8.23
2019-05-21T20:13:55.878Z,8.33
2019-05-21T20:16:27.396Z,8.07
2019-05-21T20:18:57.396Z,8.67
2019-05-21T20:21:27.829Z,8.47
2019-05-21T20:23:58.034Z,8.40
2019-05-21T20:26:30.206Z,8.77
2019-05-21T20:29:00.675Z,8.20
2019-05-21T20:31:30.804Z,8.70
2019-05-21T20:34:02.243Z,9.20
2019-05-21T20:36:32.296Z,10.60
2019-05-21T20:39:02.484Z,10.07
2019-05-21T20:41:34.235Z,9.03
2019-05-21T20:44:04.480Z,8.60
2019-05-21T20:46:34.774Z,8.40
2019-05-21T20:49:06.006Z,8.70
2019-05-21T20:51:37.519Z,8.53
2019-05-21T20:54:08.224Z,8.93
2019-05-21T20:56:40.113Z,9.20
2019-05-21T20:59:10.365Z,8.70
2019-05-21T21:01:41.281Z,9.07
2019-05-21T21:04:11.790Z,8.57
2019-05-21T21:06:42.673Z,8.50
2019-05-21T21:09:13.639Z,8.87
2019-05-21T21:11:43.886Z,8.80
2019-05-21T21:14:18.260Z,8.87
2019-05-21T21:16:48.345Z,8.97
2019-05-21T21:19:18.511Z,8.83
2019-05-21T21:21:48.879Z,9.90
2019-05-21T21:24:19.161Z,8.87
2019-05-21T21:26:49.271Z,8.93
2019-05-21T21:29:19.310Z,9.23
2019-05-21T21:31:49.368Z,9.30
2019-05-21T21:34:19.702Z,9.20
2019-05-21T21:36:53.174Z,9.23
2019-05-21T21:39:21.506Z,8.80
2019-05-21T21:41:52.228Z,9.80
2019-05-21T21:44:33.416Z,9.50
2019-05-21T21:46:54.507Z,9.60
2019-05-21T21:49:25.478Z,9.43
2019-05-21T21:51:56.675Z,9.20
2019-05-21T21:54:26.697Z,9.50
2019-05-21T21:56:56.782Z,9.40
2019-05-21T21:59:26.967Z,9.87
2019-05-21T22:02:00.004Z,9.33
2019-05-21T22:04:34.219Z,9.90
2019-05-21T22:07:05.404Z,10.00
2019-05-21T22:09:35.892Z,10.00
2019-05-21T22:12:06.496Z,9.67
2019-05-21T22:14:49.784Z,10.53
2019-05-21T22:17:10.321Z,10.27
2019-05-21T22:19:40.920Z,9.80
2019-05-21T22:22:11.778Z,9.93
2019-05-21T22:24:41.852Z,10.00
2019-05-21T22:27:11.920Z,10.43
2019-05-21T22:29:41.981Z,9.30
2019-05-21T22:32:16.563Z,10.37
2019-05-21T22:34:44.826Z,10.00
2019-05-21T22:37:16.586Z,10.57
2019-05-21T22:39:48.112Z,10.23
2019-05-21T22:42:19.386Z,10.17
2019-05-21T22:44:49.455Z,10.30
2019-05-21T22:47:20.728Z,10.70
2019-05-21T22:49:50.860Z,10.60
2019-05-21T22:52:20.893Z,10.30
2019-05-21T22:54:50.897Z,10.40
2019-05-21T22:57:21.239Z,10.20
2019-05-21T22:59:51.390Z,10.47
2019-05-21T23:02:23.022Z,10.43
2019-05-21T23:04:53.363Z,10.33
2019-05-21T23:07:23.561Z,10.30
2019-05-21T23:09:54.697Z,10.93
2019-05-21T23:12:24.841Z,10.87
2019-05-21T23:14:55.188Z,10.37
2019-05-21T23:17:28.383Z,10.60
2019-05-21T23:20:04.542Z,10.90
2019-05-21T23:22:36.208Z,11.50
2019-05-21T23:25:07.920Z,10.57
2019-05-21T23:27:38.855Z,11.30
2019-05-21T23:30:11.477Z,11.30
2019-05-21T23:32:42.155Z,11.20
2019-05-21T23:35:12.604Z,11.70
2019-05-21T23:37:44.763Z,11.40
2019-05-21T23:40:17.172Z,11.30
2019-05-21T23:42:47.486Z,11.37
2019-05-21T23:45:18.259Z,11.53
2019-05-21T23:47:49.063Z,12.20
2019-05-21T23:50:20.690Z,11.27
2019-05-21T23:52:52.667Z,11.53
2019-05-21T23:55:23.899Z,11.00
2019-05-21T23:57:53.992Z,10.87
